Time;durP1;ratioP1;P1;durP2;ratioP2;P2;SDS_P1;SDS_P2;PMS_P1;PMS_P2;Temp;Humidity;BMP_temperature;BMP_pressure;BME280_temperature;BME280_humidity;BME280_pressure;Samples;Min_cycle;Max_cycle;Signal;HPM_P1;HPM_P2
2023/05/03 00:02:07;;;;;;;5.47;3.10;;;;;;;;;;5044579;28;20206;-67
2023/05/03 00:04:33;;;;;;;5.83;2.97;;;;;;;;;;5044200;28;20688;-66
2023/05/03 00:06:58;;;;;;;7.43;3.23;;;;;;;;;;5047255;28;20190;-67
2023/05/03 00:09:23;;;;;;;7.20;2.70;;;;;;;;;;5046550;28;20200;-66
2023/05/03 00:11:49;;;;;;;10.20;2.53;;;;;;;;;;5048507;28;20260;-67
2023/05/03 00:14:14;;;;;;;7.73;3.17;;;;;;;;;;5046690;28;20202;-67
2023/05/03 00:16:40;;;;;;;3.80;2.70;;;;;;;;;;5046410;28;20249;-67
2023/05/03 00:19:05;;;;;;;6.03;3.17;;;;;;;;;;5047654;28;20193;-67
2023/05/03 00:21:30;;;;;;;6.27;3.33;;;;;;;;;;5050602;28;20251;-67
2023/05/03 00:23:56;;;;;;;8.90;3.20;;;;;;;;;;5035421;28;20785;-67
2023/05/03 00:26:21;;;;;;;5.60;3.40;;;;;;;;;;5042213;28;20197;-67
2023/05/03 00:28:47;;;;;;;9.20;3.30;;;;;;;;;;5047049;28;20650;-68
2023/05/03 00:31:12;;;;;;;7.80;3.27;;;;;;;;;;5042004;28;20660;-67
2023/05/03 00:33:38;;;;;;;8.03;3.23;;;;;;;;;;5047091;28;20217;-67
2023/05/03 00:36:08;;;;;;;5.87;3.60;;;;;;;;;;5031054;28;20683;-67
2023/05/03 00:38:34;;;;;;;6.30;3.47;;;;;;;;;;5038314;28;20217;-67
2023/05/03 00:40:59;;;;;;;10.07;3.33;;;;;;;;;;5045737;28;20699;-67
2023/05/03 00:43:25;;;;;;;10.07;3.60;;;;;;;;;;5044966;28;20181;-68
2023/05/03 00:45:51;;;;;;;8.67;3.73;;;;;;;;;;5042811;28;20653;-68
2023/05/03 00:48:17;;;;;;;6.40;3.63;;;;;;;;;;5038766;28;20194;-68
2023/05/03 00:50:44;;;;;;;10.30;4.03;;;;;;;;;;5042006;28;20195;-68
2023/05/03 00:53:10;;;;;;;9.97;3.50;;;;;;;;;;5042310;28;20206;-68
2023/05/03 00:55:35;;;;;;;7.07;3.57;;;;;;;;;;5041289;28;20243;-67
2023/05/03 00:58:01;;;;;;;5.97;3.33;;;;;;;;;;5035956;28;20213;-68
2023/05/03 01:00:26;;;;;;;5.20;3.20;;;;;;;;;;5034441;28;20263;-68
2023/05/03 01:02:52;;;;;;;9.03;4.00;;;;;;;;;;5041043;28;20182;-68
2023/05/03 01:05:20;;;;;;;10.00;3.40;;;;;;;;;;5046488;28;20594;-68
2023/05/03 01:08:04;;;;;;;6.20;3.33;;;;;;;;;;5048921;28;20177;-68
2023/05/03 01:10:50;;;;;;;7.40;3.83;;;;;;;;;;5050042;28;20285;-68
2023/05/03 01:13:35;;;;;;;6.80;3.60;;;;;;;;;;5045665;28;20298;-66
2023/05/03 01:16:25;;;;;;;6.47;3.53;;;;;;;;;;5032964;28;20198;-67
2023/05/03 01:18:53;;;;;;;6.73;3.60;;;;;;;;;;5034874;28;20200;-66
2023/05/03 01:21:21;;;;;;;4.80;3.33;;;;;;;;;;5044432;28;20603;-66
2023/05/03 01:23:56;;;;;;;7.73;3.90;;;;;;;;;;5045981;28;20178;-66
2023/05/03 01:26:23;;;;;;;6.00;4.23;;;;;;;;;;5042385;28;20307;-67
2023/05/03 01:28:49;;;;;;;7.73;3.70;;;;;;;;;;5049265;28;20197;-67
2023/05/03 01:31:20;;;;;;;10.57;3.83;;;;;;;;;;5047763;28;20181;-67
2023/05/03 01:34:01;;;;;;;5.60;3.53;;;;;;;;;;5040964;28;20564;-67
2023/05/03 01:36:33;;;;;;;4.40;3.43;;;;;;;;;;5049341;28;20674;-67
2023/05/03 01:39:06;;;;;;;7.43;4.30;;;;;;;;;;5047746;28;20613;-67
2023/05/03 01:41:34;;;;;;;13.50;4.23;;;;;;;;;;5049072;28;20196;-67
2023/05/03 01:44:00;;;;;;;6.43;4.27;;;;;;;;;;5049329;28;20189;-67
2023/05/03 01:46:26;;;;;;;7.13;3.90;;;;;;;;;;5041546;28;20600;-67
2023/05/03 01:48:51;;;;;;;6.97;4.20;;;;;;;;;;5036337;28;20196;-67
2023/05/03 01:51:16;;;;;;;7.80;4.00;;;;;;;;;;5047486;28;20190;-67
2023/05/03 01:53:42;;;;;;;7.57;4.50;;;;;;;;;;5034390;28;20229;-67
2023/05/03 01:56:07;;;;;;;10.63;3.97;;;;;;;;;;5048951;28;20549;-67
2023/05/03 01:58:33;;;;;;;7.17;4.27;;;;;;;;;;5043574;28;20260;-67
2023/05/03 02:00:58;;;;;;;8.27;4.20;;;;;;;;;;5048299;28;20201;-67
2023/05/03 02:03:23;;;;;;;10.20;4.13;;;;;;;;;;5055691;28;20189;-67
2023/05/03 02:05:49;;;;;;;6.57;4.33;;;;;;;;;;5041227;28;20205;-67
2023/05/03 02:08:15;;;;;;;8.50;4.97;;;;;;;;;;5041000;28;20232;-67
2023/05/03 02:10:43;;;;;;;15.73;4.50;;;;;;;;;;5044369;28;20281;-67
2023/05/03 02:13:08;;;;;;;10.23;4.13;;;;;;;;;;5043409;28;20212;-67
2023/05/03 02:15:34;;;;;;;6.10;4.10;;;;;;;;;;5046881;28;20276;-67
2023/05/03 02:18:01;;;;;;;8.93;4.87;;;;;;;;;;5041022;28;20186;-67
2023/05/03 02:20:26;;;;;;;11.07;4.77;;;;;;;;;;5048253;28;20201;-67
2023/05/03 02:22:52;;;;;;;10.67;4.60;;;;;;;;;;5034542;28;20186;-67
2023/05/03 02:25:17;;;;;;;6.77;4.53;;;;;;;;;;5048566;28;20194;-67
2023/05/03 02:27:42;;;;;;;7.37;4.57;;;;;;;;;;5044050;28;20613;-67
2023/05/03 02:30:08;;;;;;;8.53;4.87;;;;;;;;;;5039350;28;20328;-67
2023/05/03 02:32:34;;;;;;;6.33;4.47;;;;;;;;;;5040644;28;20204;-67
2023/05/03 02:35:00;;;;;;;8.30;4.67;;;;;;;;;;5048074;28;20246;-66
2023/05/03 02:37:25;;;;;;;10.23;4.50;;;;;;;;;;5048430;28;20189;-66
2023/05/03 02:39:51;;;;;;;10.37;4.57;;;;;;;;;;5036481;28;20182;-67
2023/05/03 02:42:16;;;;;;;9.40;4.83;;;;;;;;;;5036686;28;20271;-67
2023/05/03 02:44:42;;;;;;;9.83;4.13;;;;;;;;;;5040746;28;20197;-68
2023/05/03 02:47:08;;;;;;;7.87;4.50;;;;;;;;;;5041429;28;20221;-67
2023/05/03 02:49:33;;;;;;;11.47;4.33;;;;;;;;;;5038248;28;20550;-67
2023/05/03 02:51:59;;;;;;;9.03;4.60;;;;;;;;;;5039563;28;20185;-67
2023/05/03 02:54:24;;;;;;;7.03;4.73;;;;;;;;;;5039504;28;20339;-68
2023/05/03 02:56:49;;;;;;;8.63;4.43;;;;;;;;;;5043489;28;20632;-67
2023/05/03 02:59:15;;;;;;;7.53;4.30;;;;;;;;;;5041088;28;20173;-67
2023/05/03 03:01:40;;;;;;;9.50;4.97;;;;;;;;;;5035101;28;20213;-67
2023/05/03 03:04:06;;;;;;;10.30;4.70;;;;;;;;;;5041389;28;20272;-67
2023/05/03 03:06:31;;;;;;;9.67;4.63;;;;;;;;;;5033474;28;20302;-67
2023/05/03 03:08:56;;;;;;;6.60;4.00;;;;;;;;;;5035230;28;20186;-67
2023/05/03 03:11:22;;;;;;;8.93;4.50;;;;;;;;;;5037357;28;20502;-67
2023/05/03 03:13:48;;;;;;;10.60;5.13;;;;;;;;;;5029149;28;20198;-68
2023/05/03 03:16:13;;;;;;;11.57;5.30;;;;;;;;;;5047639;28;20197;-67
2023/05/03 03:18:39;;;;;;;9.57;4.87;;;;;;;;;;5047587;28;20661;-67
2023/05/03 03:21:04;;;;;;;7.80;4.63;;;;;;;;;;5046463;28;20242;-67
2023/05/03 03:23:30;;;;;;;8.23;4.70;;;;;;;;;;5035479;28;20255;-67
2023/05/03 03:25:55;;;;;;;9.73;5.27;;;;;;;;;;5044781;28;20328;-67
2023/05/03 03:28:20;;;;;;;9.57;4.90;;;;;;;;;;5038559;28;20185;-67
2023/05/03 03:30:46;;;;;;;7.00;4.80;;;;;;;;;;5036629;28;20193;-68
2023/05/03 03:33:11;;;;;;;7.87;4.23;;;;;;;;;;5032700;28;20293;-67
2023/05/03 03:35:37;;;;;;;11.20;4.57;;;;;;;;;;5042300;28;20656;-67
2023/05/03 03:38:03;;;;;;;9.97;4.87;;;;;;;;;;5042687;28;20300;-67
2023/05/03 03:40:28;;;;;;;8.93;4.30;;;;;;;;;;5046360;28;20684;-67
2023/05/03 03:42:54;;;;;;;9.00;4.93;;;;;;;;;;5046479;28;20177;-68
2023/05/03 03:45:19;;;;;;;12.43;4.77;;;;;;;;;;5042231;28;20233;-68
2023/05/03 03:47:44;;;;;;;10.10;4.73;;;;;;;;;;5043588;28;20697;-68
2023/05/03 03:50:10;;;;;;;6.47;4.83;;;;;;;;;;5047623;28;20311;-68
2023/05/03 03:52:35;;;;;;;11.57;5.10;;;;;;;;;;5035045;28;20213;-67
2023/05/03 03:55:01;;;;;;;14.20;5.40;;;;;;;;;;5028800;28;20193;-67
2023/05/03 03:57:29;;;;;;;7.50;5.10;;;;;;;;;;5048837;28;20186;-68
2023/05/03 03:59:55;;;;;;;9.40;5.33;;;;;;;;;;5036152;28;20629;-67
2023/05/03 04:02:20;;;;;;;7.30;5.10;;;;;;;;;;5049986;28;20404;-68
2023/05/03 04:04:46;;;;;;;8.97;5.00;;;;;;;;;;5050722;28;20213;-68
2023/05/03 04:07:11;;;;;;;10.63;5.13;;;;;;;;;;5040976;28;20303;-68
2023/05/03 04:09:36;;;;;;;8.97;5.03;;;;;;;;;;5051131;28;20201;-67
2023/05/03 04:12:02;;;;;;;10.90;5.60;;;;;;;;;;5048442;28;20186;-67
2023/05/03 04:14:28;;;;;;;9.47;5.47;;;;;;;;;;5038367;28;20193;-67
2023/05/03 04:16:53;;;;;;;8.83;5.70;;;;;;;;;;5045447;28;20297;-68
2023/05/03 04:19:20;;;;;;;11.03;5.03;;;;;;;;;;5050421;28;20851;-67
2023/05/03 04:21:46;;;;;;;10.30;4.57;;;;;;;;;;5047865;28;20188;-68
2023/05/03 04:24:14;;;;;;;12.60;4.90;;;;;;;;;;5050755;28;20186;-67
2023/05/03 04:26:40;;;;;;;7.30;5.00;;;;;;;;;;5050523;28;20748;-69
2023/05/03 04:29:05;;;;;;;12.83;4.70;;;;;;;;;;5038917;28;20282;-68
2023/05/03 04:31:31;;;;;;;6.57;4.63;;;;;;;;;;5047525;28;20285;-68
2023/05/03 04:33:56;;;;;;;9.40;5.13;;;;;;;;;;5032157;28;20217;-69
2023/05/03 04:36:24;;;;;;;7.60;4.97;;;;;;;;;;5048520;28;20188;-68
2023/05/03 04:38:50;;;;;;;8.20;5.07;;;;;;;;;;5040114;28;20212;-68
2023/05/03 04:41:16;;;;;;;7.33;4.90;;;;;;;;;;5046192;28;20200;-68
2023/05/03 04:43:41;;;;;;;8.57;5.40;;;;;;;;;;5051029;28;20193;-68
2023/05/03 04:46:07;;;;;;;10.90;5.53;;;;;;;;;;5048904;28;20642;-68
2023/05/03 04:48:33;;;;;;;10.33;5.07;;;;;;;;;;5031519;28;20576;-67
2023/05/03 04:50:58;;;;;;;7.20;4.90;;;;;;;;;;5043156;28;20201;-67
2023/05/03 04:53:23;;;;;;;7.50;4.63;;;;;;;;;;5060926;28;20217;-67
2023/05/03 04:55:49;;;;;;;10.50;5.17;;;;;;;;;;5049606;28;20189;-67
2023/05/03 04:58:15;;;;;;;14.73;5.30;;;;;;;;;;5036584;28;20189;-68
2023/05/03 05:00:41;;;;;;;9.67;5.50;;;;;;;;;;5038763;28;20208;-66
2023/05/03 05:03:06;;;;;;;10.13;5.40;;;;;;;;;;5042109;28;20185;-67
2023/05/03 05:05:32;;;;;;;8.47;5.30;;;;;;;;;;5034890;28;20297;-67
2023/05/03 05:07:57;;;;;;;11.33;5.73;;;;;;;;;;5040754;28;20322;-67
2023/05/03 05:10:22;;;;;;;11.97;5.20;;;;;;;;;;5040635;28;20661;-67
2023/05/03 05:12:48;;;;;;;10.67;5.93;;;;;;;;;;5032498;28;20214;-67
2023/05/03 05:15:13;;;;;;;13.37;6.20;;;;;;;;;;5042586;28;20270;-67
2023/05/03 05:17:39;;;;;;;10.37;5.70;;;;;;;;;;5044718;28;20228;-67
2023/05/03 05:20:06;;;;;;;9.47;5.90;;;;;;;;;;5040359;28;20227;-67
2023/05/03 05:22:32;;;;;;;8.73;5.83;;;;;;;;;;5049407;28;20311;-67
2023/05/03 05:24:57;;;;;;;8.87;6.37;;;;;;;;;;5046795;28;20302;-67
2023/05/03 05:27:23;;;;;;;12.60;6.43;;;;;;;;;;5051191;28;20202;-69
2023/05/03 05:29:48;;;;;;;10.00;6.33;;;;;;;;;;5042597;28;20178;-67
2023/05/03 05:32:14;;;;;;;12.37;6.47;;;;;;;;;;5034939;28;20631;-67
2023/05/03 05:34:39;;;;;;;10.20;6.30;;;;;;;;;;5034397;28;20605;-67
2023/05/03 05:37:05;;;;;;;12.47;6.80;;;;;;;;;;5048038;28;20236;-67
2023/05/03 05:39:30;;;;;;;7.77;5.60;;;;;;;;;;5045981;28;20192;-67
2023/05/03 05:41:55;;;;;;;10.43;6.53;;;;;;;;;;5044241;28;20619;-68
2023/05/03 05:44:21;;;;;;;11.87;6.20;;;;;;;;;;5049038;28;20201;-67
2023/05/03 05:46:48;;;;;;;12.27;6.33;;;;;;;;;;5048716;28;20300;-68
2023/05/03 05:49:13;;;;;;;14.13;5.70;;;;;;;;;;5050830;28;20197;-67
2023/05/03 05:51:38;;;;;;;14.27;5.47;;;;;;;;;;5045858;28;20220;-68
2023/05/03 05:54:04;;;;;;;10.70;5.83;;;;;;;;;;5049022;28;20197;-68
2023/05/03 05:56:29;;;;;;;9.97;5.20;;;;;;;;;;5042570;28;20197;-68
2023/05/03 05:58:56;;;;;;;11.67;5.63;;;;;;;;;;5036077;28;20185;-68
2023/05/03 06:01:21;;;;;;;8.27;4.97;;;;;;;;;;5047669;28;20205;-68
2023/05/03 06:03:47;;;;;;;12.33;6.73;;;;;;;;;;5040371;28;20269;-68
2023/05/03 06:06:12;;;;;;;12.17;5.30;;;;;;;;;;5037067;28;20216;-68
2023/05/03 06:08:37;;;;;;;9.23;4.50;;;;;;;;;;5045261;28;20197;-68
2023/05/03 06:11:03;;;;;;;8.80;5.23;;;;;;;;;;5048535;28;20641;-68
2023/05/03 06:13:28;;;;;;;13.33;4.67;;;;;;;;;;5036164;28;20210;-67
2023/05/03 06:15:54;;;;;;;9.13;4.80;;;;;;;;;;5042046;28;20220;-67
2023/05/03 06:18:19;;;;;;;10.40;4.60;;;;;;;;;;5048437;28;20201;-67
2023/05/03 06:20:48;;;;;;;8.77;4.50;;;;;;;;;;5047779;28;20224;-68
2023/05/03 06:23:14;;;;;;;9.60;4.27;;;;;;;;;;5053608;28;20263;-68
2023/05/03 06:25:39;;;;;;;12.47;4.33;;;;;;;;;;5052508;28;20996;-68
2023/05/03 06:28:04;;;;;;;8.77;4.20;;;;;;;;;;5041332;28;20293;-67
2023/05/03 06:30:30;;;;;;;9.93;4.20;;;;;;;;;;5041474;28;20217;-67
2023/05/03 06:32:55;;;;;;;5.40;4.00;;;;;;;;;;5044174;28;20202;-68
2023/05/03 06:35:21;;;;;;;7.30;3.70;;;;;;;;;;5048576;28;20197;-68
2023/05/03 06:37:47;;;;;;;10.50;4.00;;;;;;;;;;5033573;28;20662;-68
2023/05/03 06:40:12;;;;;;;8.13;3.97;;;;;;;;;;5040678;28;20312;-67
2023/05/03 06:42:38;;;;;;;5.37;3.10;;;;;;;;;;5045709;28;20181;-67
2023/05/03 06:45:03;;;;;;;7.40;3.10;;;;;;;;;;5048880;28;20221;-67
2023/05/03 06:47:29;;;;;;;6.03;3.10;;;;;;;;;;5047728;28;20321;-67
2023/05/03 06:49:54;;;;;;;9.13;2.90;;;;;;;;;;5043896;28;20178;-67
2023/05/03 06:52:20;;;;;;;8.33;3.27;;;;;;;;;;5043517;28;20205;-68
2023/05/03 06:54:45;;;;;;;5.33;3.10;;;;;;;;;;5047318;28;20235;-68
2023/05/03 06:57:11;;;;;;;7.57;3.13;;;;;;;;;;5040236;28;20206;-68
2023/05/03 06:59:36;;;;;;;6.40;3.10;;;;;;;;;;5033221;28;20265;-68
2023/05/03 07:02:01;;;;;;;5.83;3.40;;;;;;;;;;5042727;28;20213;-68
2023/05/03 07:04:27;;;;;;;5.53;2.80;;;;;;;;;;5045083;28;20196;-68
2023/05/03 07:06:52;;;;;;;5.77;2.60;;;;;;;;;;5042785;28;20227;-67
2023/05/03 07:09:17;;;;;;;5.50;2.60;;;;;;;;;;5033525;28;20239;-68
2023/05/03 07:11:48;;;;;;;10.17;2.53;;;;;;;;;;5047478;28;20664;-67
2023/05/03 07:14:14;;;;;;;5.25;2.60;;;;;;;;;;5041021;28;20212;-68
2023/05/03 07:16:39;;;;;;;10.17;2.30;;;;;;;;;;5036646;28;20198;-67
2023/05/03 07:19:05;;;;;;;3.87;2.20;;;;;;;;;;5034351;28;20197;-67
2023/05/03 07:21:30;;;;;;;7.93;2.73;;;;;;;;;;5056088;28;20185;-66
2023/05/03 07:23:56;;;;;;;5.28;2.05;;;;;;;;;;5045256;28;20204;-67
2023/05/03 07:26:21;;;;;;;5.25;2.30;;;;;;;;;;5044115;28;20197;-67
2023/05/03 07:28:47;;;;;;;5.70;2.50;;;;;;;;;;5047754;28;20485;-67
2023/05/03 07:31:12;;;;;;;5.93;2.13;;;;;;;;;;5034451;28;20265;-67
2023/05/03 07:33:37;;;;;;;4.32;2.40;;;;;;;;;;5037392;28;20202;-66
2023/05/03 07:36:04;;;;;;;5.72;2.30;;;;;;;;;;5033566;28;20300;-67
2023/05/03 07:38:30;;;;;;;6.75;2.08;;;;;;;;;;5039623;28;20275;-68
2023/05/03 07:40:55;;;;;;;3.72;1.80;;;;;;;;;;5052812;28;20277;-67
2023/05/03 07:43:22;;;;;;;4.78;1.50;;;;;;;;;;5033234;28;20193;-67
2023/05/03 07:45:48;;;;;;;5.25;1.60;;;;;;;;;;5041096;28;20268;-67
2023/05/03 07:48:13;;;;;;;5.47;1.75;;;;;;;;;;5042410;28;20487;-68
2023/05/03 07:50:41;;;;;;;4.82;1.48;;;;;;;;;;5052878;28;20194;-70
2023/05/03 07:53:07;;;;;;;4.20;1.40;;;;;;;;;;5044267;28;20244;-68
2023/05/03 07:55:35;;;;;;;3.38;1.25;;;;;;;;;;5035151;28;20233;-68
2023/05/03 07:58:01;;;;;;;5.22;1.67;;;;;;;;;;5035902;28;20190;-67
2023/05/03 08:00:26;;;;;;;5.32;1.38;;;;;;;;;;5042253;28;20217;-68
2023/05/03 08:02:52;;;;;;;5.20;1.80;;;;;;;;;;5047188;28;20178;-67
2023/05/03 08:05:17;;;;;;;4.45;1.40;;;;;;;;;;5046632;28;20205;-67
2023/05/03 08:07:43;;;;;;;3.65;1.50;;;;;;;;;;5038968;28;20241;-67
2023/05/03 08:10:09;;;;;;;3.92;1.15;;;;;;;;;;5027872;28;20198;-67
2023/05/03 08:12:35;;;;;;;3.78;1.50;;;;;;;;;;5046714;28;20209;-67
2023/05/03 08:15:00;;;;;;;6.25;1.55;;;;;;;;;;5047321;28;20235;-67
2023/05/03 08:17:26;;;;;;;4.65;1.40;;;;;;;;;;5041830;28;20517;-68
2023/05/03 08:19:53;;;;;;;6.63;1.40;;;;;;;;;;5045884;28;20254;-68
2023/05/03 08:22:19;;;;;;;3.47;1.40;;;;;;;;;;5040865;28;20235;-67
2023/05/03 08:24:45;;;;;;;3.50;1.50;;;;;;;;;;5047073;28;20618;-67
2023/05/03 08:27:11;;;;;;;4.80;1.20;;;;;;;;;;5047719;28;20548;-68
2023/05/03 08:29:37;;;;;;;6.45;2.03;;;;;;;;;;5040328;28;20676;-67
2023/05/03 08:32:03;;;;;;;5.25;1.50;;;;;;;;;;5039026;28;20597;-68
2023/05/03 08:34:29;;;;;;;4.20;1.30;;;;;;;;;;5045908;28;20198;-68
2023/05/03 08:36:55;;;;;;;4.88;1.60;;;;;;;;;;5050039;28;20658;-69
2023/05/03 08:39:21;;;;;;;7.43;1.50;;;;;;;;;;5038994;28;20195;-68
2023/05/03 08:41:47;;;;;;;6.10;1.55;;;;;;;;;;5047306;28;20212;-68
2023/05/03 08:44:20;;;;;;;5.93;1.50;;;;;;;;;;5050361;28;20693;-68
2023/05/03 08:46:45;;;;;;;2.92;1.20;;;;;;;;;;5048933;28;20229;-68
2023/05/03 08:49:11;;;;;;;5.82;1.40;;;;;;;;;;5050466;28;20235;-68
2023/05/03 08:51:40;;;;;;;5.80;1.63;;;;;;;;;;5047527;28;20276;-68
2023/05/03 08:54:05;;;;;;;2.70;1.52;;;;;;;;;;5040149;28;20391;-67
2023/05/03 08:56:38;;;;;;;5.95;1.90;;;;;;;;;;5047439;28;20824;-68
2023/05/03 08:59:07;;;;;;;4.40;1.70;;;;;;;;;;5032227;28;20190;-67
2023/05/03 09:01:34;;;;;;;3.88;2.08;;;;;;;;;;5042947;28;20764;-73
2023/05/03 09:04:00;;;;;;;6.85;1.77;;;;;;;;;;5049256;28;20182;-68
2023/05/03 09:06:26;;;;;;;7.13;2.00;;;;;;;;;;5040314;28;20323;-69
2023/05/03 09:08:52;;;;;;;6.22;1.95;;;;;;;;;;5048818;28;20264;-68
2023/05/03 09:11:26;;;;;;;4.63;1.58;;;;;;;;;;5050317;28;20192;-69
2023/05/03 09:13:52;;;;;;;6.15;1.77;;;;;;;;;;5033102;28;20308;-68
2023/05/03 09:16:27;;;;;;;6.60;1.90;;;;;;;;;;5038280;28;20285;-67
2023/05/03 09:18:57;;;;;;;6.07;1.48;;;;;;;;;;5049435;28;20193;-68
2023/05/03 09:21:22;;;;;;;6.22;1.73;;;;;;;;;;5050403;28;20185;-69
2023/05/03 09:23:48;;;;;;;9.98;1.70;;;;;;;;;;5048730;28;20198;-67
2023/05/03 09:26:27;;;;;;;5.47;1.45;;;;;;;;;;5049627;28;20703;-67
2023/05/03 09:28:52;;;;;;;7.22;1.73;;;;;;;;;;5049733;28;20283;-69
2023/05/03 09:31:17;;;;;;;5.78;1.60;;;;;;;;;;5029178;28;20194;-69
2023/05/03 09:33:43;;;;;;;4.50;1.38;;;;;;;;;;5049916;28;20205;-68
2023/05/03 09:36:09;;;;;;;3.88;1.30;;;;;;;;;;5049075;28;20189;-68
2023/05/03 09:38:38;;;;;;;3.78;1.50;;;;;;;;;;5040754;28;20190;-68
2023/05/03 09:41:06;;;;;;;3.83;1.40;;;;;;;;;;5030338;28;20194;-68
2023/05/03 09:43:33;;;;;;;8.00;1.70;;;;;;;;;;5050559;28;20649;-68
2023/05/03 09:46:10;;;;;;;4.90;1.42;;;;;;;;;;5041487;28;20224;-68
2023/05/03 09:48:36;;;;;;;6.80;1.90;;;;;;;;;;5044875;28;20606;-68
2023/05/03 09:51:04;;;;;;;6.30;1.85;;;;;;;;;;5049054;28;20185;-66
2023/05/03 09:53:30;;;;;;;7.72;2.00;;;;;;;;;;5041126;28;20237;-66
2023/05/03 09:55:56;;;;;;;5.95;1.60;;;;;;;;;;5040257;28;20524;-66
2023/05/03 09:58:24;;;;;;;3.38;1.95;;;;;;;;;;5047213;28;20559;-68
2023/05/03 10:00:51;;;;;;;6.72;1.83;;;;;;;;;;5034584;28;20232;-67
2023/05/03 10:03:23;;;;;;;6.28;1.67;;;;;;;;;;5048077;28;20496;-68
2023/05/03 10:05:50;;;;;;;5.35;1.63;;;;;;;;;;5042587;28;20271;-68
2023/05/03 10:08:39;;;;;;;6.85;1.92;;;;;;;;;;5052070;28;20192;-71
2023/05/03 10:11:07;;;;;;;3.20;1.77;;;;;;;;;;5039671;28;20186;-68
2023/05/03 10:13:33;;;;;;;4.88;1.98;;;;;;;;;;5029692;28;20222;-68
2023/05/03 10:16:04;;;;;;;5.05;1.98;;;;;;;;;;5048107;28;20771;-67
2023/05/03 10:18:31;;;;;;;4.00;1.55;;;;;;;;;;5043901;28;20197;-68
2023/05/03 10:21:02;;;;;;;3.55;1.83;;;;;;;;;;5044222;28;20633;-68
2023/05/03 10:23:28;;;;;;;4.15;1.73;;;;;;;;;;5048395;28;20200;-69
2023/05/03 10:26:12;;;;;;;4.82;1.80;;;;;;;;;;5034165;28;20315;-68
2023/05/03 10:28:38;;;;;;;4.38;1.58;;;;;;;;;;5036948;28;20252;-67
2023/05/03 10:31:03;;;;;;;6.10;1.83;;;;;;;;;;5033908;28;20189;-68
2023/05/03 10:33:35;;;;;;;6.07;1.73;;;;;;;;;;5039968;28;20198;-67
2023/05/03 10:36:05;;;;;;;9.07;2.13;;;;;;;;;;5043333;28;20181;-67
2023/05/03 10:38:31;;;;;;;5.22;1.70;;;;;;;;;;5048555;28;20228;-68
2023/05/03 10:40:58;;;;;;;4.35;1.85;;;;;;;;;;5047873;28;20625;-68
2023/05/03 10:43:30;;;;;;;2.88;2.03;;;;;;;;;;5039915;28;20213;-70
2023/05/03 10:46:00;;;;;;;5.25;1.85;;;;;;;;;;5047780;28;20290;-68
2023/05/03 10:48:27;;;;;;;6.13;1.80;;;;;;;;;;5047561;28;20285;-69
2023/05/03 10:50:53;;;;;;;5.15;2.20;;;;;;;;;;5041148;28;20181;-70
2023/05/03 10:53:34;;;;;;;3.78;1.80;;;;;;;;;;5045002;28;20312;-68
2023/05/03 10:56:06;;;;;;;8.45;2.40;;;;;;;;;;5048336;28;20237;-69
2023/05/03 10:58:35;;;;;;;5.35;2.00;;;;;;;;;;5041619;28;20197;-68
2023/05/03 11:01:03;;;;;;;6.00;2.00;;;;;;;;;;5036330;28;20703;-68
2023/05/03 11:03:42;;;;;;;3.50;2.00;;;;;;;;;;5048303;28;20195;-67
2023/05/03 11:06:07;;;;;;;6.85;1.95;;;;;;;;;;5047809;28;20189;-69
2023/05/03 11:08:36;;;;;;;5.57;2.38;;;;;;;;;;5044333;28;20714;-68
2023/05/03 11:11:07;;;;;;;4.15;2.10;;;;;;;;;;5027653;28;20194;-70
2023/05/03 11:13:32;;;;;;;4.68;2.25;;;;;;;;;;5041262;28;20556;-67
2023/05/03 11:15:58;;;;;;;6.53;2.15;;;;;;;;;;5047584;28;20187;-68
2023/05/03 11:18:26;;;;;;;5.88;2.13;;;;;;;;;;5046771;28;20641;-68
2023/05/03 11:20:52;;;;;;;4.30;2.17;;;;;;;;;;5047461;28;20253;-68
2023/05/03 11:23:18;;;;;;;4.05;1.92;;;;;;;;;;5044830;28;20186;-72
2023/05/03 11:25:43;;;;;;;5.68;2.38;;;;;;;;;;5050260;28;20257;-69
2023/05/03 11:28:09;;;;;;;5.30;2.10;;;;;;;;;;5047103;28;20200;-68
2023/05/03 11:30:36;;;;;;;3.78;2.08;;;;;;;;;;5047531;28;20672;-69
2023/05/03 11:33:02;;;;;;;4.72;2.03;;;;;;;;;;5028294;28;20416;-68
2023/05/03 11:35:28;;;;;;;3.45;1.98;;;;;;;;;;5041204;28;20177;-69
2023/05/03 11:37:54;;;;;;;4.55;2.10;;;;;;;;;;5040539;28;20193;-68
2023/05/03 11:40:20;;;;;;;5.35;2.20;;;;;;;;;;5028200;28;20649;-68
2023/05/03 11:42:52;;;;;;;3.38;2.20;;;;;;;;;;5046753;28;20284;-69
2023/05/03 11:45:21;;;;;;;8.45;2.55;;;;;;;;;;5036599;28;20327;-68
2023/05/03 11:47:46;;;;;;;5.80;2.13;;;;;;;;;;5044099;28;20201;-69
2023/05/03 11:50:12;;;;;;;3.65;1.80;;;;;;;;;;5035027;28;20537;-68
2023/05/03 11:52:38;;;;;;;7.15;2.00;;;;;;;;;;5041959;28;20570;-69
2023/05/03 11:55:05;;;;;;;3.60;2.28;;;;;;;;;;5033125;28;20302;-68
2023/05/03 11:57:31;;;;;;;5.05;2.15;;;;;;;;;;5043137;28;20243;-69
2023/05/03 12:00:09;;;;;;;4.70;2.10;;;;;;;;;;5034368;28;20198;-69
2023/05/03 12:02:35;;;;;;;8.13;2.22;;;;;;;;;;5060176;28;20177;-69
2023/05/03 12:05:00;;;;;;;3.90;1.88;;;;;;;;;;5043671;28;20193;-68
2023/05/03 12:07:26;;;;;;;3.85;2.20;;;;;;;;;;5041927;28;20502;-69
2023/05/03 12:09:51;;;;;;;4.53;2.30;;;;;;;;;;5046318;28;20193;-70
2023/05/03 12:12:18;;;;;;;4.32;2.13;;;;;;;;;;5047170;28;20675;-69
2023/05/03 12:15:00;;;;;;;5.63;2.30;;;;;;;;;;5047415;28;20736;-68
2023/05/03 12:17:39;;;;;;;6.60;2.22;;;;;;;;;;5032116;28;20313;-69
2023/05/03 12:20:21;;;;;;;7.00;2.08;;;;;;;;;;5051012;28;20193;-69
2023/05/03 12:22:51;;;;;;;5.15;2.30;;;;;;;;;;5052863;28;20267;-69
2023/05/03 12:25:16;;;;;;;4.25;2.33;;;;;;;;;;5038383;28;20239;-69
2023/05/03 12:27:42;;;;;;;6.18;2.30;;;;;;;;;;5045996;28;20632;-70
2023/05/03 12:30:10;;;;;;;5.93;2.20;;;;;;;;;;5049965;28;20224;-69
2023/05/03 12:32:39;;;;;;;6.72;2.28;;;;;;;;;;5047601;28;20275;-68
2023/05/03 12:35:07;;;;;;;4.47;2.20;;;;;;;;;;5046199;28;20586;-69
2023/05/03 12:37:33;;;;;;;3.05;2.00;;;;;;;;;;5049865;28;20546;-69
2023/05/03 12:39:58;;;;;;;3.35;2.25;;;;;;;;;;5030783;28;20190;-70
2023/05/03 12:42:25;;;;;;;5.10;2.47;;;;;;;;;;5045125;28;20263;-69
2023/05/03 12:44:50;;;;;;;7.93;2.50;;;;;;;;;;5043590;28;20193;-69
2023/05/03 12:47:15;;;;;;;4.50;2.00;;;;;;;;;;5041185;28;20247;-69
2023/05/03 12:49:41;;;;;;;3.05;2.38;;;;;;;;;;5050517;28;20204;-69
2023/05/03 12:52:07;;;;;;;5.57;2.30;;;;;;;;;;5050731;28;20663;-69
2023/05/03 12:54:33;;;;;;;7.93;2.53;;;;;;;;;;5049738;28;20201;-69
2023/05/03 12:57:02;;;;;;;5.22;2.33;;;;;;;;;;5046919;28;20186;-69
2023/05/03 12:59:28;;;;;;;8.07;2.25;;;;;;;;;;5042703;28;20202;-66
2023/05/03 13:01:53;;;;;;;7.45;2.35;;;;;;;;;;5049892;28;20218;-68
2023/05/03 13:04:19;;;;;;;3.22;2.00;;;;;;;;;;5043387;28;20721;-70
2023/05/03 13:06:45;;;;;;;5.40;2.17;;;;;;;;;;5037048;28;20221;-68
2023/05/03 13:09:10;;;;;;;4.90;2.10;;;;;;;;;;5030829;28;20193;-68
2023/05/03 13:11:36;;;;;;;5.13;2.30;;;;;;;;;;5050123;28;20280;-68
2023/05/03 13:14:02;;;;;;;7.68;2.38;;;;;;;;;;5046338;28;20242;-69
2023/05/03 13:16:28;;;;;;;5.90;2.13;;;;;;;;;;5039466;28;20196;-70
2023/05/03 13:18:55;;;;;;;8.70;2.55;;;;;;;;;;5052097;28;20628;-68
2023/05/03 13:21:21;;;;;;;4.68;2.15;;;;;;;;;;5046888;28;20192;-69
2023/05/03 13:23:46;;;;;;;4.90;1.88;;;;;;;;;;5041074;28;20193;-68
2023/05/03 13:26:12;;;;;;;5.60;2.17;;;;;;;;;;5036480;28;20205;-69
2023/05/03 13:28:39;;;;;;;2.53;1.70;;;;;;;;;;5043808;28;20186;-68
2023/05/03 13:31:05;;;;;;;6.43;2.30;;;;;;;;;;5049421;28;20536;-70
2023/05/03 13:33:30;;;;;;;6.10;2.30;;;;;;;;;;5047347;28;20309;-69
2023/05/03 13:35:56;;;;;;;4.78;2.30;;;;;;;;;;5046051;28;20249;-71
2023/05/03 13:38:21;;;;;;;5.65;2.28;;;;;;;;;;5047910;28;20200;-69
2023/05/03 13:40:47;;;;;;;4.50;2.28;;;;;;;;;;5036890;28;20236;-68
2023/05/03 13:43:12;;;;;;;6.15;2.25;;;;;;;;;;5029086;28;20307;-70
2023/05/03 13:45:37;;;;;;;3.45;2.10;;;;;;;;;;5039194;28;20240;-69
2023/05/03 13:48:04;;;;;;;3.30;2.15;;;;;;;;;;5031988;28;20577;-70
2023/05/03 13:50:29;;;;;;;6.30;2.47;;;;;;;;;;5048917;28;20190;-70
2023/05/03 13:52:55;;;;;;;4.43;2.30;;;;;;;;;;5038416;28;20570;-70
2023/05/03 13:55:21;;;;;;;4.75;2.22;;;;;;;;;;5044262;28;20190;-69
2023/05/03 13:57:47;;;;;;;6.70;2.97;;;;;;;;;;5040092;28;20194;-69
2023/05/03 14:00:13;;;;;;;2.90;2.28;;;;;;;;;;5042901;28;20464;-67
2023/05/03 14:02:38;;;;;;;4.47;2.60;;;;;;;;;;5049442;28;20251;-68
2023/05/03 14:05:04;;;;;;;5.30;2.38;;;;;;;;;;5049190;28;20201;-69
2023/05/03 14:07:30;;;;;;;10.18;2.92;;;;;;;;;;5048640;28;20268;-69
2023/05/03 14:09:56;;;;;;;7.18;2.50;;;;;;;;;;5049575;28;20280;-72
2023/05/03 14:12:22;;;;;;;4.40;2.45;;;;;;;;;;5034715;28;20272;-69
2023/05/03 14:14:47;;;;;;;3.65;2.20;;;;;;;;;;5055558;28;20216;-70
2023/05/03 14:17:12;;;;;;;4.25;2.42;;;;;;;;;;5052901;28;20264;-69
2023/05/03 14:19:38;;;;;;;3.83;2.33;;;;;;;;;;5041149;28;20463;-69
2023/05/03 14:22:04;;;;;;;5.00;2.40;;;;;;;;;;5029118;28;20273;-69
2023/05/03 14:24:30;;;;;;;4.72;2.45;;;;;;;;;;5054990;28;20684;-70
2023/05/03 14:26:55;;;;;;;5.70;2.63;;;;;;;;;;5037334;28;20197;-70
2023/05/03 14:29:20;;;;;;;8.68;2.80;;;;;;;;;;5046677;28;20607;-69
2023/05/03 14:31:46;;;;;;;5.63;2.20;;;;;;;;;;5048904;28;20197;-69
2023/05/03 14:34:11;;;;;;;7.20;2.47;;;;;;;;;;5046821;28;20259;-69
2023/05/03 14:36:42;;;;;;;6.15;2.35;;;;;;;;;;5047851;28;20197;-69
2023/05/03 14:39:07;;;;;;;5.60;2.40;;;;;;;;;;5040270;28;20185;-68